sensor_id;sensor_type;location;lat;lon;timestamp;temperature;humidity
32322;DHT22;61553;48.994;8.940;2023-07-30T00:02:03;17.80;99.90
32322;DHT22;61553;48.994;8.940;2023-07-30T00:04:29;17.70;99.90
32322;DHT22;61553;48.994;8.940;2023-07-30T00:06:54;17.70;99.90
32322;DHT22;61553;48.994;8.940;2023-07-30T00:09:20;17.60;99.90
32322;DHT22;61553;48.994;8.940;2023-07-30T00:11:46;17.60;99.90
32322;DHT22;61553;48.994;8.940;2023-07-30T00:14:12;17.60;99.90
32322;DHT22;61553;48.994;8.940;2023-07-30T00:16:37;17.50;99.90
32322;DHT22;61553;48.994;8.940;2023-07-30T00:19:03;17.40;99.90
32322;DHT22;61553;48.994;8.940;2023-07-30T00:21:29;17.40;99.90
32322;DHT22;61553;48.994;8.940;2023-07-30T00:23:54;17.40;99.90
32322;DHT22;61553;48.994;8.940;2023-07-30T00:26:20;17.30;99.90
32322;DHT22;61553;48.994;8.940;2023-07-30T00:28:46;17.30;99.90
32322;DHT22;61553;48.994;8.940;2023-07-30T00:31:11;17.20;99.90
32322;DHT22;61553;48.994;8.940;2023-07-30T00:33:37;17.10;99.90
32322;DHT22;61553;48.994;8.940;2023-07-30T00:36:03;17.10;99.90
32322;DHT22;61553;48.994;8.940;2023-07-30T00:38:28;17.00;99.90
32322;DHT22;61553;48.994;8.940;2023-07-30T00:40:54;17.00;99.90
32322;DHT22;61553;48.994;8.940;2023-07-30T00:43:21;16.90;99.90
32322;DHT22;61553;48.994;8.940;2023-07-30T00:45:46;17.00;99.90
32322;DHT22;61553;48.994;8.940;2023-07-30T00:48:13;16.90;99.90
32322;DHT22;61553;48.994;8.940;2023-07-30T00:50:39;16.90;99.90
32322;DHT22;61553;48.994;8.940;2023-07-30T00:53:07;16.90;99.90
32322;DHT22;61553;48.994;8.940;2023-07-30T00:55:34;16.90;99.90
32322;DHT22;61553;48.994;8.940;2023-07-30T00:58:01;17.00;99.90
32322;DHT22;61553;48.994;8.940;2023-07-30T01:00:27;16.90;99.90
32322;DHT22;61553;48.994;8.940;2023-07-30T01:02:55;16.90;99.90
32322;DHT22;61553;48.994;8.940;2023-07-30T01:05:21;17.00;99.90
32322;DHT22;61553;48.994;8.940;2023-07-30T01:07:46;16.90;99.90
32322;DHT22;61553;48.994;8.940;2023-07-30T01:10:12;17.00;99.90
32322;DHT22;61553;48.994;8.940;2023-07-30T01:12:38;16.90;99.90
32322;DHT22;61553;48.994;8.940;2023-07-30T01:15:05;17.00;99.90
32322;DHT22;61553;48.994;8.940;2023-07-30T01:17:32;17.00;99.90
32322;DHT22;61553;48.994;8.940;2023-07-30T01:19:58;17.10;99.90
32322;DHT22;61553;48.994;8.940;2023-07-30T01:22:24;17.10;99.90
32322;DHT22;61553;48.994;8.940;2023-07-30T01:24:50;17.00;99.90
32322;DHT22;61553;48.994;8.940;2023-07-30T01:27:28;17.00;99.90
32322;DHT22;61553;48.994;8.940;2023-07-30T01:30:08;17.00;99.90
32322;DHT22;61553;48.994;8.940;2023-07-30T01:32:36;17.00;99.90
32322;DHT22;61553;48.994;8.940;2023-07-30T01:35:03;17.00;99.90
32322;DHT22;61553;48.994;8.940;2023-07-30T01:37:30;17.00;99.90
32322;DHT22;61553;48.994;8.940;2023-07-30T01:39:56;17.00;99.90
32322;DHT22;61553;48.994;8.940;2023-07-30T01:42:28;16.90;99.90
32322;DHT22;61553;48.994;8.940;2023-07-30T01:44:53;17.00;99.90
32322;DHT22;61553;48.994;8.940;2023-07-30T01:47:19;16.90;99.90
32322;DHT22;61553;48.994;8.940;2023-07-30T01:49:45;17.00;99.90
32322;DHT22;61553;48.994;8.940;2023-07-30T01:52:10;17.00;99.90
32322;DHT22;61553;48.994;8.940;2023-07-30T01:54:36;17.10;99.90
32322;DHT22;61553;48.994;8.940;2023-07-30T01:57:02;17.00;99.90
32322;DHT22;61553;48.994;8.940;2023-07-30T01:59:27;17.10;99.90
32322;DHT22;61553;48.994;8.940;2023-07-30T02:01:53;17.20;99.90
32322;DHT22;61553;48.994;8.940;2023-07-30T02:04:18;17.30;99.90
32322;DHT22;61553;48.994;8.940;2023-07-30T02:06:44;17.20;99.90
32322;DHT22;61553;48.994;8.940;2023-07-30T02:09:10;17.20;99.90
32322;DHT22;61553;48.994;8.940;2023-07-30T02:11:35;17.30;99.90
32322;DHT22;61553;48.994;8.940;2023-07-30T02:14:01;17.30;99.90
32322;DHT22;61553;48.994;8.940;2023-07-30T02:16:26;17.30;99.90
32322;DHT22;61553;48.994;8.940;2023-07-30T02:18:52;17.30;99.90
32322;DHT22;61553;48.994;8.940;2023-07-30T02:21:18;17.30;99.90
32322;DHT22;61553;48.994;8.940;2023-07-30T02:23:43;17.40;99.90
32322;DHT22;61553;48.994;8.940;2023-07-30T02:26:09;17.40;99.90
32322;DHT22;61553;48.994;8.940;2023-07-30T02:28:34;17.40;99.90
32322;DHT22;61553;48.994;8.940;2023-07-30T02:31:00;17.40;99.90
32322;DHT22;61553;48.994;8.940;2023-07-30T02:33:26;17.50;99.90
32322;DHT22;61553;48.994;8.940;2023-07-30T02:35:52;17.50;99.90
32322;DHT22;61553;48.994;8.940;2023-07-30T02:38:17;17.50;99.90
32322;DHT22;61553;48.994;8.940;2023-07-30T02:40:43;17.40;99.90
32322;DHT22;61553;48.994;8.940;2023-07-30T02:43:08;17.40;99.90
32322;DHT22;61553;48.994;8.940;2023-07-30T02:45:34;17.40;99.90
32322;DHT22;61553;48.994;8.940;2023-07-30T02:47:59;17.40;99.90
32322;DHT22;61553;48.994;8.940;2023-07-30T02:50:25;17.40;99.90
32322;DHT22;61553;48.994;8.940;2023-07-30T02:52:51;17.40;99.90
32322;DHT22;61553;48.994;8.940;2023-07-30T02:55:16;17.40;99.90
32322;DHT22;61553;48.994;8.940;2023-07-30T02:57:42;17.50;99.90
32322;DHT22;61553;48.994;8.940;2023-07-30T03:00:08;17.50;99.90
32322;DHT22;61553;48.994;8.940;2023-07-30T03:02:36;17.50;99.90
32322;DHT22;61553;48.994;8.940;2023-07-30T03:05:02;17.50;99.90
32322;DHT22;61553;48.994;8.940;2023-07-30T03:07:28;17.40;99.90
32322;DHT22;61553;48.994;8.940;2023-07-30T03:09:53;17.50;99.90
32322;DHT22;61553;48.994;8.940;2023-07-30T03:12:19;17.50;99.90
32322;DHT22;61553;48.994;8.940;2023-07-30T03:14:45;17.50;99.90
32322;DHT22;61553;48.994;8.940;2023-07-30T03:17:10;17.50;99.90
32322;DHT22;61553;48.994;8.940;2023-07-30T03:19:36;17.50;99.90
32322;DHT22;61553;48.994;8.940;2023-07-30T03:22:02;17.50;99.90
32322;DHT22;61553;48.994;8.940;2023-07-30T03:24:27;17.40;99.90
32322;DHT22;61553;48.994;8.940;2023-07-30T03:26:53;17.40;99.90
32322;DHT22;61553;48.994;8.940;2023-07-30T03:29:18;17.40;99.90
32322;DHT22;61553;48.994;8.940;2023-07-30T03:31:44;17.40;99.90
32322;DHT22;61553;48.994;8.940;2023-07-30T03:34:10;17.40;99.90
32322;DHT22;61553;48.994;8.940;2023-07-30T03:36:35;17.30;99.90
32322;DHT22;61553;48.994;8.940;2023-07-30T03:39:01;17.30;99.90
32322;DHT22;61553;48.994;8.940;2023-07-30T03:41:27;17.30;99.90
32322;DHT22;61553;48.994;8.940;2023-07-30T03:43:52;17.30;99.90
32322;DHT22;61553;48.994;8.940;2023-07-30T03:46:18;17.30;99.90
32322;DHT22;61553;48.994;8.940;2023-07-30T03:48:43;17.30;99.90
32322;DHT22;61553;48.994;8.940;2023-07-30T03:51:09;17.30;99.90
32322;DHT22;61553;48.994;8.940;2023-07-30T03:53:35;17.30;99.90
32322;DHT22;61553;48.994;8.940;2023-07-30T03:56:01;17.40;99.90
32322;DHT22;61553;48.994;8.940;2023-07-30T03:58:27;17.40;99.90
32322;DHT22;61553;48.994;8.940;2023-07-30T04:00:52;17.30;99.90
32322;DHT22;61553;48.994;8.940;2023-07-30T04:03:18;17.40;99.90
32322;DHT22;61553;48.994;8.940;2023-07-30T04:05:44;17.40;99.90
32322;DHT22;61553;48.994;8.940;2023-07-30T04:08:09;17.40;99.90
32322;DHT22;61553;48.994;8.940;2023-07-30T04:10:35;17.40;99.90
32322;DHT22;61553;48.994;8.940;2023-07-30T04:13:01;17.50;99.90
32322;DHT22;61553;48.994;8.940;2023-07-30T04:15:26;17.50;99.90
32322;DHT22;61553;48.994;8.940;2023-07-30T04:17:52;17.50;99.90
32322;DHT22;61553;48.994;8.940;2023-07-30T04:20:18;17.60;99.90
32322;DHT22;61553;48.994;8.940;2023-07-30T04:22:44;17.60;99.90
32322;DHT22;61553;48.994;8.940;2023-07-30T04:25:09;17.60;99.90
32322;DHT22;61553;48.994;8.940;2023-07-30T04:27:38;17.70;99.90
32322;DHT22;61553;48.994;8.940;2023-07-30T04:30:07;17.70;99.90
32322;DHT22;61553;48.994;8.940;2023-07-30T04:32:33;17.70;99.90
32322;DHT22;61553;48.994;8.940;2023-07-30T04:34:59;17.70;99.90
32322;DHT22;61553;48.994;8.940;2023-07-30T04:37:25;17.80;99.90
32322;DHT22;61553;48.994;8.940;2023-07-30T04:39:50;17.90;99.90
32322;DHT22;61553;48.994;8.940;2023-07-30T04:42:16;17.90;99.90
32322;DHT22;61553;48.994;8.940;2023-07-30T04:44:42;17.90;99.90
32322;DHT22;61553;48.994;8.940;2023-07-30T04:47:07;18.00;99.90
32322;DHT22;61553;48.994;8.940;2023-07-30T04:49:33;18.00;99.90
32322;DHT22;61553;48.994;8.940;2023-07-30T04:51:59;18.00;99.90
32322;DHT22;61553;48.994;8.940;2023-07-30T04:54:24;18.00;99.90
32322;DHT22;61553;48.994;8.940;2023-07-30T04:56:50;17.90;99.90
32322;DHT22;61553;48.994;8.940;2023-07-30T04:59:16;17.80;99.90
32322;DHT22;61553;48.994;8.940;2023-07-30T05:01:41;17.70;99.90
32322;DHT22;61553;48.994;8.940;2023-07-30T05:04:07;17.70;99.90
32322;DHT22;61553;48.994;8.940;2023-07-30T05:06:33;17.60;99.90
32322;DHT22;61553;48.994;8.940;2023-07-30T05:08:58;17.60;99.90
32322;DHT22;61553;48.994;8.940;2023-07-30T05:11:24;17.60;99.90
32322;DHT22;61553;48.994;8.940;2023-07-30T05:13:50;17.60;99.90
32322;DHT22;61553;48.994;8.940;2023-07-30T05:16:15;17.50;99.90
32322;DHT22;61553;48.994;8.940;2023-07-30T05:18:41;17.50;99.90
32322;DHT22;61553;48.994;8.940;2023-07-30T05:21:07;17.60;99.90
32322;DHT22;61553;48.994;8.940;2023-07-30T05:23:32;17.60;99.90
32322;DHT22;61553;48.994;8.940;2023-07-30T05:25:58;17.50;99.90
32322;DHT22;61553;48.994;8.940;2023-07-30T05:28:23;17.60;99.90
32322;DHT22;61553;48.994;8.940;2023-07-30T05:30:49;17.50;99.90
32322;DHT22;61553;48.994;8.940;2023-07-30T05:33:15;17.60;99.90
32322;DHT22;61553;48.994;8.940;2023-07-30T05:35:41;17.60;99.90
32322;DHT22;61553;48.994;8.940;2023-07-30T05:38:06;17.60;99.90
32322;DHT22;61553;48.994;8.940;2023-07-30T05:40:32;17.60;99.90
32322;DHT22;61553;48.994;8.940;2023-07-30T05:42:58;17.60;99.90
32322;DHT22;61553;48.994;8.940;2023-07-30T05:45:23;17.60;99.90
32322;DHT22;61553;48.994;8.940;2023-07-30T05:47:49;17.70;99.90
32322;DHT22;61553;48.994;8.940;2023-07-30T05:50:14;17.70;99.90
32322;DHT22;61553;48.994;8.940;2023-07-30T05:52:40;17.80;99.90
32322;DHT22;61553;48.994;8.940;2023-07-30T05:55:06;17.90;99.90
32322;DHT22;61553;48.994;8.940;2023-07-30T05:57:31;18.10;99.90
32322;DHT22;61553;48.994;8.940;2023-07-30T05:59:57;18.20;99.90
32322;DHT22;61553;48.994;8.940;2023-07-30T06:02:23;18.40;99.90
32322;DHT22;61553;48.994;8.940;2023-07-30T06:04:48;18.60;99.90
32322;DHT22;61553;48.994;8.940;2023-07-30T06:07:14;18.70;99.90
32322;DHT22;61553;48.994;8.940;2023-07-30T06:09:39;19.00;99.90
32322;DHT22;61553;48.994;8.940;2023-07-30T06:12:05;19.20;99.90
32322;DHT22;61553;48.994;8.940;2023-07-30T06:14:31;20.40;99.90
32322;DHT22;61553;48.994;8.940;2023-07-30T06:16:56;20.90;99.90
32322;DHT22;61553;48.994;8.940;2023-07-30T06:19:22;21.10;99.90
32322;DHT22;61553;48.994;8.940;2023-07-30T06:21:48;20.90;99.90
32322;DHT22;61553;48.994;8.940;2023-07-30T06:24:13;20.90;99.90
32322;DHT22;61553;48.994;8.940;2023-07-30T06:26:39;21.00;99.90
32322;DHT22;61553;48.994;8.940;2023-07-30T06:29:05;24.40;99.90
32322;DHT22;61553;48.994;8.940;2023-07-30T06:31:31;26.40;99.90
32322;DHT22;61553;48.994;8.940;2023-07-30T06:33:56;27.60;99.90
32322;DHT22;61553;48.994;8.940;2023-07-30T06:36:22;29.70;98.00
32322;DHT22;61553;48.994;8.940;2023-07-30T06:38:47;30.80;93.70
32322;DHT22;61553;48.994;8.940;2023-07-30T06:41:13;31.90;89.00
32322;DHT22;61553;48.994;8.940;2023-07-30T06:43:39;31.60;86.50
32322;DHT22;61553;48.994;8.940;2023-07-30T06:46:05;30.90;86.70
32322;DHT22;61553;48.994;8.940;2023-07-30T06:48:30;30.00;89.40
32322;DHT22;61553;48.994;8.940;2023-07-30T06:50:56;29.20;90.40
32322;DHT22;61553;48.994;8.940;2023-07-30T06:53:22;28.20;91.80
32322;DHT22;61553;48.994;8.940;2023-07-30T06:55:48;27.10;93.60
32322;DHT22;61553;48.994;8.940;2023-07-30T06:58:13;26.30;96.70
32322;DHT22;61553;48.994;8.940;2023-07-30T07:00:39;25.70;98.80
32322;DHT22;61553;48.994;8.940;2023-07-30T07:03:05;25.20;99.90
32322;DHT22;61553;48.994;8.940;2023-07-30T07:05:30;24.50;99.90
32322;DHT22;61553;48.994;8.940;2023-07-30T07:07:56;24.00;99.90
32322;DHT22;61553;48.994;8.940;2023-07-30T07:10:21;23.50;99.90
32322;DHT22;61553;48.994;8.940;2023-07-30T07:12:47;23.10;99.90
32322;DHT22;61553;48.994;8.940;2023-07-30T07:15:13;22.80;99.90
32322;DHT22;61553;48.994;8.940;2023-07-30T07:17:39;22.50;99.90
32322;DHT22;61553;48.994;8.940;2023-07-30T07:20:06;22.20;99.90
32322;DHT22;61553;48.994;8.940;2023-07-30T07:22:33;21.80;99.90
32322;DHT22;61553;48.994;8.940;2023-07-30T07:24:58;21.50;99.90
32322;DHT22;61553;48.994;8.940;2023-07-30T07:27:24;21.00;99.90
32322;DHT22;61553;48.994;8.940;2023-07-30T07:29:51;20.80;99.90
32322;DHT22;61553;48.994;8.940;2023-07-30T07:32:17;20.60;99.90
32322;DHT22;61553;48.994;8.940;2023-07-30T07:34:50;20.20;99.90
32322;DHT22;61553;48.994;8.940;2023-07-30T07:37:16;19.90;99.90
32322;DHT22;61553;48.994;8.940;2023-07-30T07:39:44;19.60;99.90
32322;DHT22;61553;48.994;8.940;2023-07-30T07:42:10;19.40;99.90
32322;DHT22;61553;48.994;8.940;2023-07-30T07:44:36;19.40;99.90
32322;DHT22;61553;48.994;8.940;2023-07-30T07:47:01;19.20;99.90
32322;DHT22;61553;48.994;8.940;2023-07-30T07:49:27;19.10;99.90
32322;DHT22;61553;48.994;8.940;2023-07-30T07:51:53;19.20;99.90
32322;DHT22;61553;48.994;8.940;2023-07-30T07:54:18;19.20;99.90
32322;DHT22;61553;48.994;8.940;2023-07-30T07:56:44;19.30;99.90
32322;DHT22;61553;48.994;8.940;2023-07-30T07:59:10;19.50;99.90
32322;DHT22;61553;48.994;8.940;2023-07-30T08:01:35;19.60;99.90
32322;DHT22;61553;48.994;8.940;2023-07-30T08:04:01;19.80;99.90
32322;DHT22;61553;48.994;8.940;2023-07-30T08:06:27;20.00;99.90
32322;DHT22;61553;48.994;8.940;2023-07-30T08:08:53;20.20;99.90
32322;DHT22;61553;48.994;8.940;2023-07-30T08:11:18;20.50;99.90
32322;DHT22;61553;48.994;8.940;2023-07-30T08:13:44;20.90;99.90
32322;DHT22;61553;48.994;8.940;2023-07-30T08:16:11;21.80;99.90
32322;DHT22;61553;48.994;8.940;2023-07-30T08:18:37;22.70;99.90
32322;DHT22;61553;48.994;8.940;2023-07-30T08:21:02;23.70;99.90
32322;DHT22;61553;48.994;8.940;2023-07-30T08:23:28;24.20;99.90
32322;DHT22;61553;48.994;8.940;2023-07-30T08:25:54;24.60;99.90
32322;DHT22;61553;48.994;8.940;2023-07-30T08:28:19;25.20;99.90
32322;DHT22;61553;48.994;8.940;2023-07-30T08:30:45;25.70;99.90
32322;DHT22;61553;48.994;8.940;2023-07-30T08:33:11;26.40;99.90
32322;DHT22;61553;48.994;8.940;2023-07-30T08:35:36;27.40;99.90
32322;DHT22;61553;48.994;8.940;2023-07-30T08:38:02;28.20;99.90
32322;DHT22;61553;48.994;8.940;2023-07-30T08:40:28;28.00;99.90
32322;DHT22;61553;48.994;8.940;2023-07-30T08:42:54;27.90;99.50
32322;DHT22;61553;48.994;8.940;2023-07-30T08:45:20;27.90;99.40
32322;DHT22;61553;48.994;8.940;2023-07-30T08:47:46;28.80;97.80
32322;DHT22;61553;48.994;8.940;2023-07-30T08:50:13;29.50;95.60
32322;DHT22;61553;48.994;8.940;2023-07-30T08:52:40;29.10;93.80
32322;DHT22;61553;48.994;8.940;2023-07-30T08:55:06;28.10;95.70
32322;DHT22;61553;48.994;8.940;2023-07-30T08:57:33;27.10;97.30
32322;DHT22;61553;48.994;8.940;2023-07-30T09:00:03;26.40;97.70
32322;DHT22;61553;48.994;8.940;2023-07-30T09:02:36;25.40;99.90
32322;DHT22;61553;48.994;8.940;2023-07-30T09:05:04;24.80;99.90
32322;DHT22;61553;48.994;8.940;2023-07-30T09:07:30;24.20;99.90
32322;DHT22;61553;48.994;8.940;2023-07-30T09:09:56;23.60;99.90
32322;DHT22;61553;48.994;8.940;2023-07-30T09:12:32;23.60;99.90
32322;DHT22;61553;48.994;8.940;2023-07-30T09:14:58;23.80;99.90
32322;DHT22;61553;48.994;8.940;2023-07-30T09:17:24;25.50;99.90
32322;DHT22;61553;48.994;8.940;2023-07-30T09:19:51;27.40;99.10
32322;DHT22;61553;48.994;8.940;2023-07-30T09:22:36;29.40;94.10
32322;DHT22;61553;48.994;8.940;2023-07-30T09:25:04;30.90;89.20
32322;DHT22;61553;48.994;8.940;2023-07-30T09:27:31;30.30;88.60
32322;DHT22;61553;48.994;8.940;2023-07-30T09:33:23;31.70;81.30
32322;DHT22;61553;48.994;8.940;2023-07-30T09:35:49;31.20;78.00
32322;DHT22;61553;48.994;8.940;2023-07-30T09:38:15;31.70;72.00
32322;DHT22;61553;48.994;8.940;2023-07-30T09:40:44;32.20;72.40
32322;DHT22;61553;48.994;8.940;2023-07-30T09:43:10;31.30;68.90
32322;DHT22;61553;48.994;8.940;2023-07-30T09:45:36;30.80;70.10
32322;DHT22;61553;48.994;8.940;2023-07-30T09:48:05;29.70;72.40
32322;DHT22;61553;48.994;8.940;2023-07-30T09:50:31;29.90;72.60
32322;DHT22;61553;48.994;8.940;2023-07-30T09:52:59;29.30;74.30
32322;DHT22;61553;48.994;8.940;2023-07-30T09:55:26;29.70;72.50
32322;DHT22;61553;48.994;8.940;2023-07-30T09:57:52;29.10;72.70
32322;DHT22;61553;48.994;8.940;2023-07-30T10:00:17;28.40;75.00
32322;DHT22;61553;48.994;8.940;2023-07-30T10:02:46;27.20;77.00
32322;DHT22;61553;48.994;8.940;2023-07-30T10:05:19;26.50;79.30
32322;DHT22;61553;48.994;8.940;2023-07-30T10:07:53;26.30;79.70
32322;DHT22;61553;48.994;8.940;2023-07-30T10:10:21;26.40;80.90
32322;DHT22;61553;48.994;8.940;2023-07-30T10:12:50;26.60;80.30
32322;DHT22;61553;48.994;8.940;2023-07-30T10:15:19;27.40;80.20
32322;DHT22;61553;48.994;8.940;2023-07-30T10:17:46;28.40;76.80
32322;DHT22;61553;48.994;8.940;2023-07-30T10:20:23;27.90;76.10
32322;DHT22;61553;48.994;8.940;2023-07-30T10:22:54;27.20;77.40
32322;DHT22;61553;48.994;8.940;2023-07-30T10:25:30;26.60;75.70
32322;DHT22;61553;48.994;8.940;2023-07-30T10:27:57;26.50;79.90
32322;DHT22;61553;48.994;8.940;2023-07-30T10:30:30;26.20;78.50
32322;DHT22;61553;48.994;8.940;2023-07-30T10:35:53;25.90;81.20
32322;DHT22;61553;48.994;8.940;2023-07-30T10:38:29;26.00;80.40
32322;DHT22;61553;48.994;8.940;2023-07-30T10:41:21;26.00;80.40
32322;DHT22;61553;48.994;8.940;2023-07-30T10:43:50;25.80;81.80
32322;DHT22;61553;48.994;8.940;2023-07-30T10:46:18;25.60;82.40
32322;DHT22;61553;48.994;8.940;2023-07-30T10:48:46;25.50;82.50
32322;DHT22;61553;48.994;8.940;2023-07-30T10:51:13;25.20;82.80
32322;DHT22;61553;48.994;8.940;2023-07-30T10:53:45;25.00;83.50
32322;DHT22;61553;48.994;8.940;2023-07-30T10:56:12;24.90;84.20
32322;DHT22;61553;48.994;8.940;2023-07-30T10:58:38;24.50;85.90
32322;DHT22;61553;48.994;8.940;2023-07-30T11:01:05;24.40;85.80
32322;DHT22;61553;48.994;8.940;2023-07-30T11:03:32;24.20;88.20
32322;DHT22;61553;48.994;8.940;2023-07-30T11:05:59;23.80;88.20
32322;DHT22;61553;48.994;8.940;2023-07-30T11:08:41;23.50;89.00
32322;DHT22;61553;48.994;8.940;2023-07-30T11:11:08;23.20;91.00
32322;DHT22;61553;48.994;8.940;2023-07-30T11:13:43;22.90;91.40
32322;DHT22;61553;48.994;8.940;2023-07-30T11:16:10;22.70;91.40
32322;DHT22;61553;48.994;8.940;2023-07-30T11:18:37;22.70;92.40
32322;DHT22;61553;48.994;8.940;2023-07-30T11:21:07;22.90;92.40
32322;DHT22;61553;48.994;8.940;2023-07-30T11:23:34;23.20;92.10
32322;DHT22;61553;48.994;8.940;2023-07-30T11:26:05;23.50;91.60
32322;DHT22;61553;48.994;8.940;2023-07-30T11:28:33;23.90;90.80
32322;DHT22;61553;48.994;8.940;2023-07-30T11:30:59;24.40;91.10
32322;DHT22;61553;48.994;8.940;2023-07-30T11:33:27;24.90;88.40
32322;DHT22;61553;48.994;8.940;2023-07-30T11:35:57;24.80;89.40
32322;DHT22;61553;48.994;8.940;2023-07-30T11:38:26;24.70;89.10
32322;DHT22;61553;48.994;8.940;2023-07-30T11:40:53;24.90;87.80
32322;DHT22;61553;48.994;8.940;2023-07-30T11:43:21;25.10;87.40
32322;DHT22;61553;48.994;8.940;2023-07-30T11:45:47;24.90;86.60
32322;DHT22;61553;48.994;8.940;2023-07-30T11:48:13;24.50;88.40
32322;DHT22;61553;48.994;8.940;2023-07-30T11:53:10;24.10;87.00
32322;DHT22;61553;48.994;8.940;2023-07-30T11:55:40;24.10;87.90
32322;DHT22;61553;48.994;8.940;2023-07-30T11:58:06;23.80;87.00
32322;DHT22;61553;48.994;8.940;2023-07-30T12:00:33;23.90;88.60
32322;DHT22;61553;48.994;8.940;2023-07-30T12:03:06;23.90;87.20
32322;DHT22;61553;48.994;8.940;2023-07-30T12:05:33;23.90;84.80
32322;DHT22;61553;48.994;8.940;2023-07-30T12:08:02;23.60;84.20
32322;DHT22;61553;48.994;8.940;2023-07-30T12:10:44;23.60;84.70
32322;DHT22;61553;48.994;8.940;2023-07-30T12:13:16;23.50;84.80
32322;DHT22;61553;48.994;8.940;2023-07-30T12:15:54;23.50;84.40
32322;DHT22;61553;48.994;8.940;2023-07-30T12:18:22;23.50;84.50
32322;DHT22;61553;48.994;8.940;2023-07-30T12:20:52;23.50;83.90
32322;DHT22;61553;48.994;8.940;2023-07-30T12:23:19;23.70;85.90
32322;DHT22;61553;48.994;8.940;2023-07-30T12:25:46;23.60;82.40
32322;DHT22;61553;48.994;8.940;2023-07-30T12:28:12;23.60;82.80
32322;DHT22;61553;48.994;8.940;2023-07-30T12:30:38;23.50;82.10
32322;DHT22;61553;48.994;8.940;2023-07-30T12:33:04;23.60;83.70
32322;DHT22;61553;48.994;8.940;2023-07-30T12:35:31;23.70;85.00
32322;DHT22;61553;48.994;8.940;2023-07-30T12:37:57;23.90;84.70
32322;DHT22;61553;48.994;8.940;2023-07-30T12:40:23;23.80;82.70
32322;DHT22;61553;48.994;8.940;2023-07-30T12:42:49;23.70;81.50
32322;DHT22;61553;48.994;8.940;2023-07-30T12:45:15;23.70;83.80
32322;DHT22;61553;48.994;8.940;2023-07-30T12:47:41;23.50;82.80
32322;DHT22;61553;48.994;8.940;2023-07-30T12:50:07;23.50;83.70
32322;DHT22;61553;48.994;8.940;2023-07-30T12:52:33;23.60;83.70
32322;DHT22;61553;48.994;8.940;2023-07-30T12:55:00;23.70;82.20
32322;DHT22;61553;48.994;8.940;2023-07-30T12:57:25;23.70;84.60
32322;DHT22;61553;48.994;8.940;2023-07-30T12:59:51;23.70;83.30
32322;DHT22;61553;48.994;8.940;2023-07-30T13:02:17;23.80;84.70
32322;DHT22;61553;48.994;8.940;2023-07-30T13:04:42;23.80;83.50
32322;DHT22;61553;48.994;8.940;2023-07-30T13:07:08;24.00;84.50
32322;DHT22;61553;48.994;8.940;2023-07-30T13:09:34;23.80;80.70
32322;DHT22;61553;48.994;8.940;2023-07-30T13:12:00;23.60;82.20
32322;DHT22;61553;48.994;8.940;2023-07-30T13:14:25;23.80;82.20
32322;DHT22;61553;48.994;8.940;2023-07-30T13:16:51;24.00;81.10
32322;DHT22;61553;48.994;8.940;2023-07-30T13:19:16;24.10;81.50
32322;DHT22;61553;48.994;8.940;2023-07-30T13:21:42;24.20;80.80
32322;DHT22;61553;48.994;8.940;2023-07-30T13:24:08;24.30;79.20
32322;DHT22;61553;48.994;8.940;2023-07-30T13:26:35;24.40;80.90
32322;DHT22;61553;48.994;8.940;2023-07-30T13:29:01;24.20;81.50
32322;DHT22;61553;48.994;8.940;2023-07-30T13:31:26;24.10;81.60
32322;DHT22;61553;48.994;8.940;2023-07-30T13:33:52;24.10;81.20
32322;DHT22;61553;48.994;8.940;2023-07-30T13:36:17;24.10;82.30
32322;DHT22;61553;48.994;8.940;2023-07-30T13:38:43;24.00;81.30
32322;DHT22;61553;48.994;8.940;2023-07-30T13:41:10;24.20;82.00
32322;DHT22;61553;48.994;8.940;2023-07-30T13:43:36;24.20;80.40
32322;DHT22;61553;48.994;8.940;2023-07-30T13:46:02;24.20;79.20
32322;DHT22;61553;48.994;8.940;2023-07-30T13:48:28;24.30;78.50
32322;DHT22;61553;48.994;8.940;2023-07-30T13:50:53;23.90;79.50
32322;DHT22;61553;48.994;8.940;2023-07-30T13:53:19;23.90;79.60
32322;DHT22;61553;48.994;8.940;2023-07-30T13:55:45;23.80;81.10
32322;DHT22;61553;48.994;8.940;2023-07-30T13:58:11;23.80;80.90
32322;DHT22;61553;48.994;8.940;2023-07-30T14:00:37;23.50;79.50
32322;DHT22;61553;48.994;8.940;2023-07-30T14:03:02;23.50;80.50
32322;DHT22;61553;48.994;8.940;2023-07-30T14:05:28;23.50;80.30
32322;DHT22;61553;48.994;8.940;2023-07-30T14:07:55;23.50;81.10
32322;DHT22;61553;48.994;8.940;2023-07-30T14:10:22;23.40;82.20
32322;DHT22;61553;48.994;8.940;2023-07-30T14:12:48;23.60;81.20
32322;DHT22;61553;48.994;8.940;2023-07-30T14:15:14;23.60;82.40
32322;DHT22;61553;48.994;8.940;2023-07-30T14:17:41;23.80;81.40
32322;DHT22;61553;48.994;8.940;2023-07-30T14:20:07;23.70;80.60
32322;DHT22;61553;48.994;8.940;2023-07-30T14:22:34;23.40;78.30
32322;DHT22;61553;48.994;8.940;2023-07-30T14:24:59;23.00;76.80
32322;DHT22;61553;48.994;8.940;2023-07-30T14:27:25;22.70;77.80
32322;DHT22;61553;48.994;8.940;2023-07-30T14:29:51;22.50;78.80
32322;DHT22;61553;48.994;8.940;2023-07-30T14:32:19;22.60;78.50
32322;DHT22;61553;48.994;8.940;2023-07-30T14:34:44;22.80;78.60
32322;DHT22;61553;48.994;8.940;2023-07-30T14:37:10;23.00;77.70
32322;DHT22;61553;48.994;8.940;2023-07-30T14:39:36;23.00;78.90
32322;DHT22;61553;48.994;8.940;2023-07-30T14:42:01;23.00;78.30
32322;DHT22;61553;48.994;8.940;2023-07-30T14:44:27;23.00;77.60
32322;DHT22;61553;48.994;8.940;2023-07-30T14:46:53;23.00;78.10
32322;DHT22;61553;48.994;8.940;2023-07-30T14:49:19;23.00;78.30
32322;DHT22;61553;48.994;8.940;2023-07-30T14:51:45;23.00;78.00
32322;DHT22;61553;48.994;8.940;2023-07-30T14:54:11;23.10;78.40
32322;DHT22;61553;48.994;8.940;2023-07-30T14:56:38;23.10;79.00
32322;DHT22;61553;48.994;8.940;2023-07-30T14:59:03;23.10;78.80
32322;DHT22;61553;48.994;8.940;2023-07-30T15:01:29;23.20;78.70
32322;DHT22;61553;48.994;8.940;2023-07-30T15:03:55;23.20;78.30
32322;DHT22;61553;48.994;8.940;2023-07-30T15:06:21;23.20;78.20
32322;DHT22;61553;48.994;8.940;2023-07-30T15:08:47;23.10;78.30
32322;DHT22;61553;48.994;8.940;2023-07-30T15:11:13;23.30;77.20
32322;DHT22;61553;48.994;8.940;2023-07-30T15:13:39;23.40;74.90
32322;DHT22;61553;48.994;8.940;2023-07-30T15:16:05;23.30;74.50
32322;DHT22;61553;48.994;8.940;2023-07-30T15:18:31;23.30;72.80
32322;DHT22;61553;48.994;8.940;2023-07-30T15:20:57;23.30;73.70
32322;DHT22;61553;48.994;8.940;2023-07-30T15:23:22;23.40;73.20
32322;DHT22;61553;48.994;8.940;2023-07-30T15:25:48;23.50;72.40
32322;DHT22;61553;48.994;8.940;2023-07-30T15:28:16;23.50;71.10
32322;DHT22;61553;48.994;8.940;2023-07-30T15:30:42;23.60;71.30
32322;DHT22;61553;48.994;8.940;2023-07-30T15:33:10;23.70;71.10
32322;DHT22;61553;48.994;8.940;2023-07-30T15:35:36;23.80;71.90